Time;durP1;ratioP1;P1;durP2;ratioP2;P2;SDS_P1;SDS_P2;PMS_P1;PMS_P2;Temp;Humidity;BMP_temperature;BMP_pressure;BME280_temperature;BME280_humidity;BME280_pressure;Samples;Min_cycle;Max_cycle;Signal;HPM_P1;HPM_P2
2022/03/20 00:00:15;;;;;;;20.58;12.45;;;6.20;99.90;;;;;;5054971;28;20190;-48
2022/03/20 00:02:42;;;;;;;17.60;11.25;;;6.10;99.90;;;;;;5054855;28;20580;-48
2022/03/20 00:05:08;;;;;;;19.13;12.57;;;6.00;99.90;;;;;;5054869;28;20174;-49
2022/03/20 00:07:35;;;;;;;25.05;11.93;;;5.90;99.90;;;;;;5054921;28;20221;-48
2022/03/20 00:10:03;;;;;;;21.27;12.88;;;5.90;99.90;;;;;;5055056;28;20224;-49
2022/03/20 00:12:29;;;;;;;17.75;11.27;;;5.90;99.90;;;;;;5054959;28;20186;-48
2022/03/20 00:14:54;;;;;;;22.13;12.68;;;5.90;99.90;;;;;;5055042;28;20174;-49
2022/03/20 00:17:23;;;;;;;18.50;12.65;;;5.90;99.90;;;;;;5054587;28;20175;-48
2022/03/20 00:19:50;;;;;;;21.60;12.10;;;5.90;99.90;;;;;;5054502;28;20167;-48
2022/03/20 00:22:16;;;;;;;15.52;11.35;;;5.80;99.90;;;;;;5054820;28;20400;-48
2022/03/20 00:24:43;;;;;;;18.60;11.63;;;5.90;99.90;;;;;;5054859;28;20170;-48
2022/03/20 00:27:12;;;;;;;20.05;12.75;;;5.80;99.90;;;;;;5054356;28;20551;-49
2022/03/20 00:29:38;;;;;;;19.88;12.02;;;5.80;99.90;;;;;;5054661;28;20182;-49
2022/03/20 00:32:05;;;;;;;19.17;11.65;;;5.80;99.90;;;;;;5054400;28;20513;-48
2022/03/20 00:34:31;;;;;;;20.08;13.88;;;5.80;99.90;;;;;;5053723;28;20246;-49
2022/03/20 00:36:56;;;;;;;21.08;11.98;;;5.80;99.90;;;;;;5054488;28;20194;-48
2022/03/20 00:39:22;;;;;;;17.52;12.00;;;5.80;99.90;;;;;;5053305;28;20177;-50
2022/03/20 00:41:47;;;;;;;21.75;12.57;;;5.80;99.90;;;;;;5054148;28;20171;-48
2022/03/20 00:44:13;;;;;;;17.70;13.10;;;5.80;99.90;;;;;;5054173;28;20163;-49
2022/03/20 00:46:38;;;;;;;23.88;14.48;;;5.90;99.90;;;;;;5053924;28;20229;-49
2022/03/20 00:49:05;;;;;;;21.38;13.70;;;5.80;99.90;;;;;;5054033;28;20587;-49
2022/03/20 00:51:31;;;;;;;19.25;12.88;;;5.80;99.90;;;;;;5053961;28;20692;-48
2022/03/20 00:53:57;;;;;;;20.75;13.43;;;5.80;99.90;;;;;;5053888;28;20179;-49
2022/03/20 00:56:22;;;;;;;21.55;13.75;;;5.80;99.90;;;;;;5054247;28;20158;-49
2022/03/20 00:58:48;;;;;;;22.40;12.10;;;5.80;99.90;;;;;;5053844;28;20178;-49
2022/03/20 01:01:14;;;;;;;19.95;13.13;;;5.80;99.90;;;;;;5053586;28;20167;-49
2022/03/20 01:03:42;;;;;;;20.92;13.88;;;5.80;99.90;;;;;;5054122;28;20614;-49
2022/03/20 01:06:09;;;;;;;18.70;12.73;;;5.70;99.90;;;;;;5053587;28;20658;-49
2022/03/20 01:08:36;;;;;;;22.17;12.73;;;5.70;99.90;;;;;;5053768;28;20631;-49
2022/03/20 01:11:02;;;;;;;17.48;12.68;;;5.70;99.90;;;;;;5053567;28;20649;-49
2022/03/20 01:13:29;;;;;;;19.05;13.00;;;5.70;99.90;;;;;;5053684;28;20186;-49
2022/03/20 01:15:55;;;;;;;18.00;13.05;;;5.70;99.90;;;;;;5054077;28;20182;-49
2022/03/20 01:18:21;;;;;;;22.13;13.65;;;5.70;99.90;;;;;;5053793;28;20170;-49
2022/03/20 01:20:46;;;;;;;19.17;13.93;;;5.60;99.90;;;;;;5053469;28;20163;-50
2022/03/20 01:23:12;;;;;;;22.58;13.90;;;5.50;99.90;;;;;;5053522;28;20175;-48
2022/03/20 01:25:38;;;;;;;19.05;12.95;;;5.50;99.90;;;;;;5053635;28;20171;-49
2022/03/20 01:28:04;;;;;;;19.27;12.27;;;5.50;99.90;;;;;;5053227;28;20719;-49
2022/03/20 01:30:29;;;;;;;20.60;12.57;;;5.50;99.90;;;;;;5053326;28;20166;-48
2022/03/20 01:32:55;;;;;;;21.92;12.55;;;5.40;99.90;;;;;;5053521;28;20197;-49
2022/03/20 01:35:20;;;;;;;20.25;12.00;;;5.40;99.90;;;;;;5053511;28;20200;-49
2022/03/20 01:37:46;;;;;;;18.40;12.65;;;5.40;99.90;;;;;;5053069;28;20174;-49
2022/03/20 01:40:11;;;;;;;16.55;11.13;;;5.40;99.90;;;;;;5053073;28;20162;-49
2022/03/20 01:42:40;;;;;;;16.25;11.98;;;5.40;99.90;;;;;;5053135;28;20672;-49
2022/03/20 01:45:23;;;;;;;17.58;11.15;;;5.50;99.90;;;;;;5053040;28;20217;-50
2022/03/20 01:47:49;;;;;;;19.67;12.10;;;5.50;99.90;;;;;;5051918;28;20202;-49
2022/03/20 01:50:16;;;;;;;17.20;12.02;;;5.50;99.90;;;;;;5052867;28;20236;-49
2022/03/20 01:52:44;;;;;;;19.38;11.48;;;5.50;99.90;;;;;;5051547;28;20171;-49
2022/03/20 01:55:10;;;;;;;19.13;11.55;;;5.50;99.90;;;;;;5053007;28;20170;-49
2022/03/20 01:57:39;;;;;;;20.15;13.18;;;5.60;99.90;;;;;;5052815;28;20532;-48
2022/03/20 02:00:06;;;;;;;17.77;12.00;;;5.60;99.90;;;;;;5052937;28;20170;-48
2022/03/20 02:02:31;;;;;;;18.73;11.77;;;5.60;99.90;;;;;;5052924;28;20174;-49
2022/03/20 02:04:57;;;;;;;22.30;11.70;;;5.60;99.90;;;;;;5052613;28;20173;-48
2022/03/20 02:07:23;;;;;;;17.38;11.68;;;5.70;99.90;;;;;;5052771;28;20202;-49
2022/03/20 02:09:48;;;;;;;19.92;12.45;;;5.70;99.90;;;;;;5052449;28;20634;-48
2022/03/20 02:12:15;;;;;;;19.75;12.13;;;5.70;99.90;;;;;;5052438;28;20221;-48
2022/03/20 02:14:41;;;;;;;19.38;12.18;;;5.70;99.90;;;;;;5052319;28;20166;-48
2022/03/20 02:17:10;;;;;;;19.52;11.48;;;5.60;99.90;;;;;;5052386;28;20196;-49
2022/03/20 02:19:37;;;;;;;21.55;11.52;;;5.60;99.90;;;;;;5052563;28;20170;-49
2022/03/20 02:22:03;;;;;;;18.48;12.02;;;5.60;99.90;;;;;;5052271;28;20184;-49
2022/03/20 02:24:41;;;;;;;19.60;12.95;;;5.60;99.90;;;;;;5052539;28;20174;-48
2022/03/20 02:27:16;;;;;;;19.83;12.35;;;5.50;99.90;;;;;;5052468;28;20214;-48
2022/03/20 02:29:43;;;;;;;20.80;12.70;;;5.60;99.90;;;;;;5052504;28;20162;-48
2022/03/20 02:32:12;;;;;;;18.35;11.52;;;5.60;99.90;;;;;;5052296;28;20690;-48
2022/03/20 02:34:39;;;;;;;15.60;11.10;;;5.60;99.90;;;;;;5052440;28;20171;-48
2022/03/20 02:37:05;;;;;;;18.52;11.68;;;5.50;99.90;;;;;;5052067;28;20167;-49
2022/03/20 02:39:32;;;;;;;17.33;11.20;;;5.60;99.90;;;;;;5052033;28;20166;-48
2022/03/20 02:42:01;;;;;;;17.02;11.48;;;5.50;99.90;;;;;;5052142;28;20171;-48
2022/03/20 02:44:52;;;;;;;18.33;11.43;;;5.60;99.90;;;;;;5051974;28;20246;-49
2022/03/20 02:47:23;;;;;;;20.77;12.35;;;5.50;99.90;;;;;;5052138;28;20218;-48
2022/03/20 02:49:56;;;;;;;16.95;11.50;;;5.50;99.90;;;;;;5052258;28;20204;-49
2022/03/20 02:52:24;;;;;;;20.33;11.52;;;5.50;99.90;;;;;;5052141;28;20517;-49
2022/03/20 02:54:51;;;;;;;18.75;11.63;;;5.30;99.90;;;;;;5051872;28;20174;-49
2022/03/20 02:57:16;;;;;;;18.33;11.48;;;5.30;99.90;;;;;;5051845;28;20537;-49
2022/03/20 02:59:42;;;;;;;21.10;12.93;;;5.30;99.90;;;;;;5051687;28;20182;-49
2022/03/20 03:02:09;;;;;;;20.17;11.48;;;5.30;99.90;;;;;;5050730;28;20170;-49
2022/03/20 03:04:37;;;;;;;16.95;11.23;;;5.30;99.90;;;;;;5052049;28;20175;-49
2022/03/20 03:07:03;;;;;;;20.85;11.80;;;5.50;99.90;;;;;;5051993;28;20220;-49
2022/03/20 03:12:13;;;;;;;17.83;11.18;;;5.30;99.90;;;;;;5052002;28;20243;-48
2022/03/20 03:17:27;;;;;;;18.90;11.82;;;5.40;99.90;;;;;;5052021;28;20190;-49
2022/03/20 03:19:56;;;;;;;18.70;11.40;;;5.30;99.90;;;;;;5051909;28;20683;-49
2022/03/20 03:22:24;;;;;;;22.85;12.13;;;5.30;99.90;;;;;;5051894;28;20166;-50
2022/03/20 03:24:50;;;;;;;18.05;11.70;;;5.30;99.90;;;;;;5052049;28;20186;-49
2022/03/20 03:27:16;;;;;;;18.60;11.70;;;5.20;99.90;;;;;;5051510;28;20252;-49
2022/03/20 03:29:42;;;;;;;17.30;11.02;;;5.20;99.90;;;;;;5051526;28;20167;-49
2022/03/20 03:32:07;;;;;;;20.27;11.98;;;5.20;99.90;;;;;;5051539;28;20213;-49
2022/03/20 03:37:20;;;;;;;17.55;10.98;;;5.10;99.90;;;;;;5051738;28;20601;-49
2022/03/20 03:39:46;;;;;;;21.13;11.50;;;5.00;99.90;;;;;;5051742;28;20204;-49
2022/03/20 03:42:12;;;;;;;19.65;11.82;;;5.00;99.90;;;;;;5051493;28;20171;-49
2022/03/20 03:44:39;;;;;;;22.63;11.75;;;5.10;99.90;;;;;;5051458;28;20679;-49
2022/03/20 03:47:05;;;;;;;17.35;11.48;;;5.00;99.90;;;;;;5051188;28;20248;-49
2022/03/20 03:49:33;;;;;;;17.67;11.95;;;5.10;99.90;;;;;;5051641;28;20163;-49
2022/03/20 03:52:00;;;;;;;18.75;12.18;;;5.00;99.90;;;;;;5051418;28;20167;-49
2022/03/20 03:54:25;;;;;;;21.77;13.10;;;5.00;99.90;;;;;;5051392;28;20159;-49
2022/03/20 03:56:51;;;;;;;19.15;11.93;;;5.10;99.90;;;;;;5051778;28;20194;-49
2022/03/20 03:59:17;;;;;;;23.35;12.10;;;5.10;99.90;;;;;;5051354;28;20260;-49
2022/03/20 04:01:43;;;;;;;21.77;11.93;;;5.10;99.90;;;;;;5051506;28;20176;-48
2022/03/20 04:04:09;;;;;;;20.10;12.85;;;5.00;99.90;;;;;;5051431;28;20258;-48
2022/03/20 04:06:34;;;;;;;20.67;12.45;;;5.00;99.90;;;;;;5051347;28;20210;-48
2022/03/20 04:09:00;;;;;;;19.08;12.50;;;5.00;99.90;;;;;;5051421;28;20174;-49
2022/03/20 04:11:26;;;;;;;21.33;13.05;;;5.00;99.90;;;;;;5053973;28;20181;-49
2022/03/20 04:13:52;;;;;;;18.52;12.23;;;4.90;99.90;;;;;;5055092;28;20183;-48
2022/03/20 04:16:18;;;;;;;24.83;12.73;;;5.00;99.90;;;;;;5054941;28;20175;-48
2022/03/20 04:18:44;;;;;;;21.75;13.10;;;5.00;99.90;;;;;;5054948;28;20175;-49
2022/03/20 04:21:10;;;;;;;16.33;11.25;;;5.00;99.90;;;;;;5054561;28;20512;-49
2022/03/20 04:23:45;;;;;;;20.48;12.65;;;5.00;99.90;;;;;;5054849;28;20171;-48
2022/03/20 04:26:16;;;;;;;17.83;11.70;;;5.00;99.90;;;;;;5054387;28;20177;-49
2022/03/20 04:28:47;;;;;;;18.58;11.48;;;5.00;99.90;;;;;;5054692;28;20321;-48
2022/03/20 04:31:16;;;;;;;18.10;11.55;;;4.90;99.90;;;;;;5054650;28;20181;-49
2022/03/20 04:33:47;;;;;;;17.08;10.93;;;4.80;99.90;;;;;;5054245;28;20175;-49
2022/03/20 04:36:13;;;;;;;19.17;12.27;;;4.80;99.90;;;;;;5054290;28;20166;-49
2022/03/20 04:38:39;;;;;;;18.75;12.55;;;4.80;99.90;;;;;;5054255;28;20182;-48
2022/03/20 04:41:05;;;;;;;22.70;12.77;;;4.70;99.90;;;;;;5054264;28;20634;-48
2022/03/20 04:43:31;;;;;;;22.33;12.85;;;4.70;99.90;;;;;;5054178;28;20212;-48
2022/03/20 04:45:56;;;;;;;22.88;13.63;;;4.70;99.90;;;;;;5052859;28;20227;-49
2022/03/20 04:59:20;;;;;;;22.67;13.73;;;4.60;99.90;;;;;;5043462;28;20531;-49
2022/03/20 05:01:46;;;;;;;22.65;14.85;;;4.60;99.90;;;;;;5054116;28;20178;-49
2022/03/20 05:04:13;;;;;;;23.83;13.18;;;4.60;99.90;;;;;;5053809;28;20167;-49
2022/03/20 05:06:39;;;;;;;20.20;12.60;;;4.70;99.90;;;;;;5053688;28;20190;-49
2022/03/20 05:14:32;;;;;;;21.85;12.95;;;4.60;99.90;;;;;;5053916;28;20269;-49
2022/03/20 05:16:57;;;;;;;21.27;12.48;;;4.60;99.90;;;;;;5053574;28;20633;-49
2022/03/20 05:19:23;;;;;;;21.75;13.48;;;4.60;99.90;;;;;;5053816;28;20186;-49
2022/03/20 05:21:49;;;;;;;21.25;14.20;;;4.60;99.90;;;;;;5053429;28;20213;-49
2022/03/20 05:24:14;;;;;;;19.67;12.68;;;4.70;99.90;;;;;;5053402;28;20601;-49
2022/03/20 05:26:40;;;;;;;20.55;13.15;;;4.70;99.90;;;;;;5052121;28;20191;-49
2022/03/20 05:29:06;;;;;;;24.33;13.77;;;4.70;99.90;;;;;;5052070;28;20180;-49
2022/03/20 05:31:32;;;;;;;24.25;13.27;;;4.70;99.90;;;;;;5053262;28;20171;-49
2022/03/20 05:33:59;;;;;;;22.15;14.00;;;4.80;99.90;;;;;;5053513;28;20190;-49
2022/03/20 05:36:29;;;;;;;26.58;15.85;;;4.80;99.90;;;;;;5053804;28;20174;-49
2022/03/20 05:38:56;;;;;;;22.88;13.38;;;4.90;99.90;;;;;;5053743;28;20175;-49
2022/03/20 05:44:06;;;;;;;20.50;12.80;;;4.90;99.90;;;;;;5053007;28;20645;-48
2022/03/20 05:46:31;;;;;;;25.55;13.20;;;5.00;99.90;;;;;;5052827;28;20222;-49
2022/03/20 05:48:57;;;;;;;21.95;13.05;;;5.00;99.90;;;;;;5053110;28;20642;-49
2022/03/20 05:51:23;;;;;;;23.38;14.45;;;5.00;99.90;;;;;;5053150;28;20209;-49
2022/03/20 05:53:49;;;;;;;21.98;13.23;;;5.10;99.90;;;;;;5053015;28;20669;-48
2022/03/20 05:58:58;;;;;;;24.48;13.18;;;5.20;99.90;;;;;;5052818;28;20177;-49
2022/03/20 06:01:24;;;;;;;22.77;14.13;;;5.20;99.90;;;;;;5053016;28;20529;-49
2022/03/20 06:03:49;;;;;;;22.15;13.70;;;5.20;99.90;;;;;;5052741;28;20166;-50
2022/03/20 06:06:15;;;;;;;20.98;13.48;;;5.20;99.90;;;;;;5052513;28;20167;-49
2022/03/20 06:08:41;;;;;;;21.48;13.63;;;5.20;99.90;;;;;;5052528;28;20622;-49
2022/03/20 06:11:06;;;;;;;28.17;14.07;;;5.30;99.90;;;;;;5052486;28;20171;-49
2022/03/20 06:13:35;;;;;;;19.67;13.48;;;5.30;99.90;;;;;;5052697;28;20185;-48
2022/03/20 06:16:01;;;;;;;25.13;13.40;;;5.40;99.90;;;;;;5052651;28;20175;-48
2022/03/20 06:18:27;;;;;;;21.10;14.10;;;5.30;99.90;;;;;;5052255;28;20235;-48
2022/03/20 06:20:53;;;;;;;20.60;13.38;;;5.50;99.90;;;;;;5052626;28;20159;-49
2022/03/20 06:23:19;;;;;;;27.52;14.13;;;5.60;99.90;;;;;;5052163;28;20171;-49
2022/03/20 06:25:45;;;;;;;22.08;14.35;;;5.60;99.90;;;;;;5052486;28;20170;-49
2022/03/20 06:28:10;;;;;;;20.98;13.70;;;5.60;99.90;;;;;;5052349;28;20209;-48
2022/03/20 06:30:36;;;;;;;22.55;14.45;;;5.60;99.90;;;;;;5052191;28;20167;-48
2022/03/20 06:33:02;;;;;;;24.73;15.52;;;5.70;99.90;;;;;;5051558;28;20245;-48
2022/03/20 06:35:28;;;;;;;22.63;14.05;;;5.70;99.90;;;;;;5051684;28;20194;-48
2022/03/20 06:37:54;;;;;;;23.45;14.82;;;5.60;99.90;;;;;;5052122;28;20178;-48
2022/03/20 06:40:21;;;;;;;23.70;14.35;;;5.60;99.90;;;;;;5052257;28;20217;-48
2022/03/20 06:42:47;;;;;;;21.52;13.45;;;5.70;99.90;;;;;;5052072;28;20249;-49
2022/03/20 06:45:14;;;;;;;21.60;13.85;;;5.70;99.90;;;;;;5051787;28;20215;-49
2022/03/20 06:47:42;;;;;;;29.17;14.93;;;5.70;99.90;;;;;;5051919;28;20252;-50
2022/03/20 06:50:10;;;;;;;23.08;14.23;;;5.70;99.90;;;;;;5052218;28;20170;-48
2022/03/20 06:52:38;;;;;;;25.40;15.35;;;5.80;99.90;;;;;;5050804;28;20171;-48
2022/03/20 06:55:05;;;;;;;24.88;15.07;;;5.90;99.90;;;;;;5052160;28;20163;-49
2022/03/20 06:57:30;;;;;;;24.55;14.52;;;6.00;99.90;;;;;;5051736;28;20173;-49
2022/03/20 06:59:58;;;;;;;21.83;14.30;;;6.20;99.90;;;;;;5050218;28;20175;-49
2022/03/20 07:02:24;;;;;;;25.92;15.80;;;6.30;99.90;;;;;;5052227;28;20685;-48
2022/03/20 07:04:51;;;;;;;25.13;15.85;;;6.50;99.90;;;;;;5051387;28;20244;-49
2022/03/20 07:07:20;;;;;;;25.27;15.70;;;6.70;99.90;;;;;;5051762;28;20597;-49
2022/03/20 07:09:46;;;;;;;29.95;17.38;;;6.70;99.90;;;;;;5051556;28;20155;-49
2022/03/20 07:12:13;;;;;;;30.45;18.27;;;6.70;99.90;;;;;;5051485;28;20229;-48
2022/03/20 07:14:39;;;;;;;27.15;16.65;;;6.70;99.90;;;;;;5052048;28;20330;-49
2022/03/20 07:17:11;;;;;;;24.90;15.77;;;6.80;99.90;;;;;;5052011;28;20194;-49
2022/03/20 07:19:37;;;;;;;23.45;15.48;;;6.90;99.90;;;;;;5052095;28;20166;-49
2022/03/20 07:22:05;;;;;;;23.65;15.60;;;7.00;99.90;;;;;;5051965;28;20241;-49
2022/03/20 07:24:32;;;;;;;25.38;16.77;;;7.20;99.90;;;;;;5051795;28;20170;-49
2022/03/20 07:29:41;;;;;;;23.73;16.90;;;6.20;99.90;;;;;;5051877;28;20181;-49
2022/03/20 07:32:08;;;;;;;26.08;15.95;;;7.20;99.90;;;;;;5051471;28;20162;-49
2022/03/20 07:34:35;;;;;;;23.52;15.85;;;7.20;99.90;;;;;;5051181;28;20695;-48
2022/03/20 07:37:01;;;;;;;25.35;15.23;;;7.20;99.90;;;;;;5051376;28;20171;-48
2022/03/20 07:39:27;;;;;;;30.02;16.92;;;7.20;99.90;;;;;;5051603;28;20167;-48
2022/03/20 07:41:53;;;;;;;24.77;15.55;;;7.40;99.90;;;;;;5051957;28;20205;-49
2022/03/20 07:44:18;;;;;;;22.90;15.18;;;7.40;99.90;;;;;;5050055;28;20167;-49
2022/03/20 07:46:44;;;;;;;28.63;17.25;;;7.50;99.90;;;;;;5054481;28;20222;-49
2022/03/20 07:49:10;;;;;;;26.27;16.83;;;7.60;99.90;;;;;;5055102;28;20167;-49
2022/03/20 07:51:36;;;;;;;23.85;15.88;;;7.60;99.90;;;;;;5054967;28;20174;-49
2022/03/20 07:54:02;;;;;;;24.52;16.02;;;7.50;99.90;;;;;;5054800;28;20170;-48
2022/03/20 07:56:30;;;;;;;23.58;16.20;;;7.50;99.90;;;;;;5054827;28;20194;-49
2022/03/20 07:58:56;;;;;;;31.65;17.40;;;7.50;99.90;;;;;;5053417;28;20181;-47
2022/03/20 08:01:22;;;;;;;25.02;17.42;;;7.70;99.90;;;;;;5054098;28;20170;-45
2022/03/20 08:03:50;;;;;;;24.60;17.50;;;8.00;99.90;;;;;;5053598;28;20189;-46
2022/03/20 08:06:15;;;;;;;26.02;17.33;;;8.00;99.90;;;;;;5053455;28;20194;-47
2022/03/20 08:08:42;;;;;;;25.35;17.83;;;8.10;99.90;;;;;;5052908;28;20221;-48
2022/03/20 08:11:08;;;;;;;25.30;17.05;;;8.30;99.90;;;;;;5053857;28;20224;-46
2022/03/20 08:13:34;;;;;;;25.45;18.17;;;8.30;99.90;;;;;;5053627;28;20220;-45
2022/03/20 08:16:00;;;;;;;25.05;17.58;;;8.40;99.90;;;;;;5053505;28;20903;-47
2022/03/20 08:18:26;;;;;;;27.38;17.48;;;8.40;99.90;;;;;;5053311;28;20163;-47
2022/03/20 08:20:52;;;;;;;24.88;16.70;;;8.50;99.90;;;;;;5053798;28;20696;-48
2022/03/20 08:23:18;;;;;;;22.92;16.40;;;8.40;99.90;;;;;;5053479;28;20171;-48
2022/03/20 08:25:43;;;;;;;24.23;17.52;;;8.60;99.90;;;;;;5053211;28;20400;-48
2022/03/20 08:28:09;;;;;;;27.15;17.98;;;8.50;99.90;;;;;;5053305;28;20245;-49
2022/03/20 08:30:36;;;;;;;25.25;18.15;;;8.50;99.90;;;;;;5053154;28;20224;-47
2022/03/20 08:33:01;;;;;;;26.55;17.83;;;8.60;99.90;;;;;;5053545;28;20178;-47
2022/03/20 08:35:27;;;;;;;25.80;18.30;;;8.60;99.90;;;;;;5053097;28;20172;-48
2022/03/20 08:37:53;;;;;;;26.35;17.67;;;8.90;99.90;;;;;;5053271;28;20764;-48
2022/03/20 08:40:20;;;;;;;26.98;18.00;;;9.10;99.90;;;;;;5053116;28;20536;-47
2022/03/20 08:42:48;;;;;;;24.67;17.10;;;9.30;99.90;;;;;;5052860;28;20174;-48
2022/03/20 08:45:15;;;;;;;24.05;18.02;;;9.40;99.90;;;;;;5052106;28;20221;-48
2022/03/20 08:47:42;;;;;;;27.42;18.70;;;9.30;99.90;;;;;;5052056;28;20220;-47
2022/03/20 08:50:08;;;;;;;29.77;21.55;;;9.60;99.90;;;;;;5052938;28;20169;-47
2022/03/20 08:52:34;;;;;;;25.40;19.42;;;9.80;99.90;;;;;;5052760;28;20170;-49
2022/03/20 08:55:00;;;;;;;26.58;18.70;;;9.70;99.70;;;;;;5052720;28;20200;-48
2022/03/20 08:57:27;;;;;;;26.27;19.02;;;9.50;99.60;;;;;;5052121;28;20178;-48
2022/03/20 08:59:54;;;;;;;29.25;17.95;;;9.40;99.90;;;;;;5052811;28;20174;-49
2022/03/20 09:02:20;;;;;;;25.45;18.50;;;9.20;99.60;;;;;;5052633;28;20537;-49
2022/03/20 09:04:46;;;;;;;28.38;18.67;;;9.30;99.90;;;;;;5052530;28;20527;-47
2022/03/20 09:07:11;;;;;;;28.45;19.33;;;9.40;99.90;;;;;;5052328;28;20218;-49
2022/03/20 09:09:37;;;;;;;28.45;18.90;;;9.40;99.90;;;;;;5052163;28;20171;-48
2022/03/20 09:12:03;;;;;;;27.10;19.20;;;9.40;99.90;;;;;;5052269;28;20177;-49
2022/03/20 09:14:28;;;;;;;28.55;18.92;;;9.30;99.90;;;;;;5052202;28;20173;-47
2022/03/20 09:19:38;;;;;;;27.25;19.23;;;9.40;99.90;;;;;;5052105;28;20224;-50
2022/03/20 09:22:06;;;;;;;26.55;19.00;;;9.30;99.90;;;;;;5052145;28;20171;-48
2022/03/20 09:24:32;;;;;;;27.75;19.10;;;9.40;99.90;;;;;;5052027;28;20688;-48
2022/03/20 09:27:00;;;;;;;27.15;19.05;;;9.40;99.90;;;;;;5051999;28;20301;-48
2022/03/20 09:29:26;;;;;;;27.80;19.92;;;9.30;99.90;;;;;;5051695;28;20189;-48
2022/03/20 09:31:51;;;;;;;28.42;20.25;;;9.10;99.90;;;;;;5051927;28;20167;-48
2022/03/20 09:34:17;;;;;;;26.88;18.92;;;9.10;99.90;;;;;;5051235;28;20219;-48
2022/03/20 09:36:42;;;;;;;28.90;19.25;;;9.10;99.90;;;;;;5050792;28;20171;-48
2022/03/20 09:39:08;;;;;;;25.67;19.17;;;9.20;99.90;;;;;;5051322;28;20254;-47
2022/03/20 09:41:36;;;;;;;27.13;18.75;;;9.20;99.90;;;;;;5051155;28;20185;-49
2022/03/20 09:44:08;;;;;;;26.15;19.55;;;9.30;99.90;;;;;;5051350;28;20159;-49
2022/03/20 09:46:35;;;;;;;27.95;19.67;;;9.40;99.90;;;;;;5051250;28;20735;-48
2022/03/20 09:49:06;;;;;;;28.75;19.77;;;9.30;99.90;;;;;;5051745;28;20171;-48
2022/03/20 09:51:34;;;;;;;29.45;19.55;;;9.40;99.90;;;;;;5051731;28;20178;-48
2022/03/20 09:54:00;;;;;;;28.75;20.40;;;9.50;99.90;;;;;;5051457;28;20253;-49
2022/03/20 09:56:25;;;;;;;28.35;19.98;;;9.80;99.90;;;;;;5052091;28;20273;-48
2022/03/20 09:58:51;;;;;;;28.45;20.58;;;10.20;99.90;;;;;;5051609;28;20173;-48
2022/03/20 10:01:17;;;;;;;27.45;19.00;;;10.40;99.90;;;;;;5051540;28;20179;-48
2022/03/20 10:03:43;;;;;;;37.67;21.10;;;10.70;99.90;;;;;;5051125;28;20179;-48
2022/03/20 10:06:17;;;;;;;25.63;20.40;;;10.80;99.90;;;;;;5051450;28;20171;-47
2022/03/20 10:08:55;;;;;;;28.20;20.20;;;10.90;99.90;;;;;;5050671;28;20177;-47
2022/03/20 10:11:21;;;;;;;28.90;20.35;;;10.90;98.20;;;;;;5051177;28;20178;-48
2022/03/20 10:14:19;;;;;;;26.15;19.60;;;10.80;98.40;;;;;;5051339;28;20175;-47
2022/03/20 10:16:48;;;;;;;24.77;19.67;;;11.00;98.70;;;;;;5046930;28;20232;-49
2022/03/20 10:19:22;;;;;;;27.48;19.73;;;10.90;96.80;;;;;;5051277;28;20174;-49
2022/03/20 10:21:55;;;;;;;28.13;21.30;;;10.90;97.70;;;;;;5051165;28;20661;-49
2022/03/20 10:24:23;;;;;;;28.13;20.92;;;10.90;97.80;;;;;;5051369;28;20175;-48
2022/03/20 10:27:02;;;;;;;26.48;18.67;;;10.70;97.90;;;;;;5051055;28;20221;-49
2022/03/20 10:29:30;;;;;;;28.27;20.10;;;10.50;98.40;;;;;;5050645;28;20626;-48
2022/03/20 10:31:58;;;;;;;25.00;19.33;;;10.60;98.10;;;;;;5051323;28;20182;-49
2022/03/20 10:34:24;;;;;;;29.40;19.80;;;10.70;97.20;;;;;;5051173;28;20167;-48
2022/03/20 10:36:51;;;;;;;31.35;21.00;;;10.50;97.30;;;;;;5050898;28;20173;-49
2022/03/20 10:39:25;;;;;;;26.08;19.20;;;10.60;97.60;;;;;;5050943;28;20654;-49
2022/03/20 10:41:54;;;;;;;31.08;22.38;;;10.70;97.90;;;;;;5051132;28;20173;-48
2022/03/20 10:44:24;;;;;;;28.33;21.23;;;10.90;98.40;;;;;;5050988;28;20171;-49
2022/03/20 10:47:02;;;;;;;27.67;20.02;;;10.80;98.10;;;;;;5050715;28;20226;-49
2022/03/20 10:49:28;;;;;;;35.42;20.42;;;10.90;97.70;;;;;;5050280;28;20521;-49
2022/03/20 10:52:05;;;;;;;38.97;20.95;;;11.00;97.40;;;;;;5050556;28;20205;-49
2022/03/20 10:54:43;;;;;;;45.33;20.50;;;11.30;97.50;;;;;;5050673;28;20224;-50
2022/03/20 10:57:11;;;;;;;33.30;21.45;;;11.70;97.70;;;;;;5049670;28;20242;-49
2022/03/20 10:59:37;;;;;;;30.30;19.55;;;11.90;97.60;;;;;;5050346;28;20177;-49
2022/03/20 11:02:08;;;;;;;31.45;20.85;;;12.10;97.00;;;;;;5049195;28;20171;-48
2022/03/20 11:04:34;;;;;;;30.10;21.45;;;12.30;96.80;;;;;;5050475;28;20159;-49
2022/03/20 11:07:03;;;;;;;29.05;21.05;;;12.40;96.60;;;;;;5050566;28;20644;-49
2022/03/20 11:09:28;;;;;;;26.38;20.00;;;12.10;95.60;;;;;;5050676;28;20186;-48
2022/03/20 11:11:57;;;;;;;27.83;20.65;;;12.30;95.80;;;;;;5050339;28;20503;-48
2022/03/20 11:14:26;;;;;;;28.63;21.40;;;12.10;94.70;;;;;;5051012;28;20181;-49
2022/03/20 11:17:06;;;;;;;25.63;21.30;;;12.00;95.70;;;;;;5050856;28;20167;-48
2022/03/20 11:19:33;;;;;;;26.23;20.23;;;12.30;96.40;;;;;;5051845;28;20181;-47
2022/03/20 11:22:05;;;;;;;29.75;21.02;;;12.30;95.60;;;;;;5054454;28;20171;-49
2022/03/20 11:24:32;;;;;;;32.15;23.02;;;12.10;95.30;;;;;;5053247;28;20174;-48
2022/03/20 11:27:01;;;;;;;25.10;19.88;;;11.90;96.40;;;;;;5054902;28;20206;-48
2022/03/20 11:29:34;;;;;;;32.38;21.48;;;11.60;97.00;;;;;;5054484;28;20162;-48
2022/03/20 11:32:01;;;;;;;27.75;21.35;;;11.70;98.30;;;;;;5054588;28;20178;-49
2022/03/20 11:34:28;;;;;;;27.85;19.65;;;11.70;98.00;;;;;;5054677;28;20170;-48
2022/03/20 11:37:02;;;;;;;32.25;22.52;;;11.60;98.00;;;;;;5054678;28;20163;-49
2022/03/20 11:39:29;;;;;;;37.15;23.00;;;11.60;98.20;;;;;;5054256;28;20165;-48
2022/03/20 11:42:19;;;;;;;28.50;20.88;;;11.40;98.30;;;;;;5054665;28;20177;-48
2022/03/20 11:44:51;;;;;;;32.13;21.88;;;11.20;99.70;;;;;;5054139;28;20255;-47
2022/03/20 11:47:17;;;;;;;30.35;20.20;;;11.10;99.90;;;;;;5054354;28;20244;-49
2022/03/20 11:49:43;;;;;;;30.48;21.13;;;10.90;99.90;;;;;;5054090;28;20182;-48
2022/03/20 11:52:11;;;;;;;38.30;24.65;;;10.80;99.90;;;;;;5052889;28;20353;-48
2022/03/20 11:54:40;;;;;;;31.60;23.17;;;10.70;99.90;;;;;;5053912;28;20202;-49
2022/03/20 11:57:28;;;;;;;32.20;21.70;;;10.60;99.90;;;;;;5052786;28;20179;-49
2022/03/20 12:00:16;;;;;;;32.92;22.05;;;10.40;99.90;;;;;;5054206;28;20166;-48
2022/03/20 12:02:48;;;;;;;31.30;23.33;;;10.40;99.90;;;;;;5053964;28;20170;-48
2022/03/20 12:05:48;;;;;;;31.90;22.15;;;10.30;99.90;;;;;;5053842;28;20162;-47
2022/03/20 12:08:25;;;;;;;31.60;23.30;;;10.20;99.90;;;;;;5035759;28;20210;-48
2022/03/20 12:11:02;;;;;;;32.10;23.60;;;10.10;99.90;;;;;;5053810;28;20166;-47
2022/03/20 12:13:59;;;;;;;32.58;22.95;;;10.00;99.90;;;;;;5053676;28;20171;-48
2022/03/20 12:16:43;;;;;;;36.38;23.48;;;9.90;99.90;;;;;;5053568;28;20174;-47
2022/03/20 12:19:13;;;;;;;34.55;24.33;;;9.80;99.90;;;;;;5053648;28;20249;-47
2022/03/20 12:22:06;;;;;;;32.38;23.45;;;9.90;99.90;;;;;;5053573;28;20171;-47
2022/03/20 12:24:34;;;;;;;31.73;22.08;;;9.80;99.90;;;;;;5053312;28;20238;-48
2022/03/20 12:27:25;;;;;;;37.72;22.70;;;9.80;99.90;;;;;;5053292;28;20277;-48
2022/03/20 12:30:07;;;;;;;29.42;20.52;;;9.60;99.90;;;;;;5053620;28;20198;-47
2022/03/20 12:32:48;;;;;;;24.25;17.90;;;9.50;99.90;;;;;;5052632;28;20163;-48
2022/03/20 12:35:19;;;;;;;30.45;21.70;;;9.60;99.90;;;;;;5053251;28;20513;-48
2022/03/20 12:37:45;;;;;;;34.47;21.45;;;9.60;99.90;;;;;;5053208;28;20220;-48
2022/03/20 12:40:18;;;;;;;33.47;20.98;;;9.50;99.90;;;;;;5052208;28;20171;-47
2022/03/20 12:42:59;;;;;;;31.92;22.30;;;9.50;99.90;;;;;;5053128;28;20181;-46
2022/03/20 12:45:28;;;;;;;40.78;25.13;;;9.50;99.90;;;;;;5052999;28;20234;-47
2022/03/20 12:48:15;;;;;;;38.35;23.88;;;9.50;99.90;;;;;;5051751;28;20678;-46
2022/03/20 12:50:43;;;;;;;31.95;20.98;;;9.30;99.90;;;;;;5052953;28;20169;-46
2022/03/20 12:53:16;;;;;;;29.88;19.38;;;9.20;99.90;;;;;;5052746;28;20170;-46
2022/03/20 12:56:12;;;;;;;37.72;24.42;;;9.00;99.90;;;;;;5052733;28;20193;-46
2022/03/20 12:58:39;;;;;;;43.30;26.00;;;9.00;99.90;;;;;;5052654;28;20217;-46
2022/03/20 13:01:09;;;;;;;33.10;22.17;;;9.00;99.90;;;;;;5052430;28;20159;-46
2022/03/20 13:03:40;;;;;;;37.88;26.70;;;8.90;99.90;;;;;;5052673;28;20626;-46
2022/03/20 13:06:06;;;;;;;40.28;24.90;;;8.90;99.90;;;;;;5052485;28;20167;-46
2022/03/20 13:08:36;;;;;;;29.42;19.00;;;8.70;99.90;;;;;;5052067;28;20212;-47
2022/03/20 13:14:05;;;;;;;30.77;19.20;;;8.60;99.90;;;;;;5052758;28;20224;-46
2022/03/20 13:16:34;;;;;;;32.15;20.17;;;8.50;99.90;;;;;;5052043;28;20189;-47
2022/03/20 13:19:01;;;;;;;27.05;18.02;;;8.40;99.90;;;;;;5052353;28;20592;-47